Time;durP1;ratioP1;P1;durP2;ratioP2;P2;SDS_P1;SDS_P2;PMS_P1;PMS_P2;Temp;Humidity;BMP_temperature;BMP_pressure;BME280_temperature;BME280_humidity;BME280_pressure;Samples;Min_cycle;Max_cycle;Signal;HPM_P1;HPM_P2
2022/04/01 00:02:13;;;;;;;401.90;385.27;;;0.70;99.90;;;;;;4383528;32;20174;-55
2022/04/01 00:04:54;;;;;;;396.47;379.93;;;0.70;99.90;;;;;;4388054;32;20145;-58
2022/04/01 00:07:27;;;;;;;387.13;370.90;;;0.70;99.90;;;;;;4387362;32;20180;-58
2022/04/01 00:10:00;;;;;;;388.77;372.70;;;0.70;99.90;;;;;;4389930;32;20155;-56
2022/04/01 00:12:26;;;;;;;389.17;372.80;;;0.70;99.90;;;;;;4379836;32;20175;-59
2022/04/01 00:14:55;;;;;;;402.67;385.87;;;0.70;99.90;;;;;;4380603;32;20561;-57
2022/04/01 00:17:25;;;;;;;400.23;383.57;;;0.70;99.90;;;;;;4385553;32;20208;-59
2022/04/01 00:19:55;;;;;;;402.13;385.37;;;0.80;99.90;;;;;;4374354;32;20225;-58
2022/04/01 00:22:24;;;;;;;396.47;380.03;;;0.70;99.90;;;;;;4388718;32;20191;-57
2022/04/01 00:24:52;;;;;;;391.30;375.13;;;0.70;99.90;;;;;;4389462;32;20557;-54
2022/04/01 00:27:19;;;;;;;393.20;376.80;;;0.70;99.90;;;;;;4383042;32;20538;-59
2022/04/01 00:29:48;;;;;;;399.63;383.07;;;0.70;99.90;;;;;;4392783;32;20600;-57
2022/04/01 00:32:15;;;;;;;396.80;380.27;;;0.70;99.90;;;;;;4392093;32;20492;-59
2022/04/01 00:34:42;;;;;;;393.60;377.33;;;0.70;99.90;;;;;;4380462;32;20172;-54
2022/04/01 00:37:10;;;;;;;389.87;373.67;;;0.70;99.90;;;;;;4380349;32;20607;-56
2022/04/01 00:39:40;;;;;;;404.70;387.67;;;0.70;99.90;;;;;;4383837;32;20156;-59
2022/04/01 00:42:07;;;;;;;383.90;367.87;;;0.70;99.90;;;;;;4385946;32;20227;-58
2022/04/01 00:44:37;;;;;;;377.67;362.07;;;0.70;99.90;;;;;;4380940;32;20505;-57
2022/04/01 00:47:08;;;;;;;396.13;379.53;;;0.70;99.90;;;;;;4383555;32;20148;-56
2022/04/01 00:49:36;;;;;;;393.20;376.97;;;0.70;99.90;;;;;;4392330;32;20162;-58
2022/04/01 00:52:08;;;;;;;398.80;382.27;;;0.70;99.90;;;;;;4389552;32;20234;-56
2022/04/01 00:54:39;;;;;;;381.23;365.37;;;0.70;99.90;;;;;;4385831;32;20144;-54
2022/04/01 00:57:08;;;;;;;385.20;369.07;;;0.70;99.90;;;;;;4385503;32;20156;-55
2022/04/01 00:59:35;;;;;;;384.90;368.90;;;0.60;99.90;;;;;;4390897;32;20148;-57
2022/04/01 01:02:04;;;;;;;390.57;374.30;;;0.70;99.90;;;;;;4387678;32;20239;-57
2022/04/01 01:04:34;;;;;;;394.63;378.27;;;0.70;99.90;;;;;;4382534;32;20201;-58
2022/04/01 01:07:01;;;;;;;393.37;377.27;;;0.60;99.90;;;;;;4380992;32;20167;-53
2022/04/01 01:09:28;;;;;;;399.53;382.83;;;0.60;99.90;;;;;;4390110;32;20155;-56
2022/04/01 01:11:59;;;;;;;391.47;375.07;;;0.60;99.90;;;;;;4390177;32;20172;-59
2022/04/01 01:14:30;;;;;;;389.57;373.33;;;0.60;99.90;;;;;;4392060;32;20190;-57
2022/04/01 01:16:58;;;;;;;401.80;384.87;;;0.60;99.90;;;;;;4392362;32;20159;-59
2022/04/01 01:19:26;;;;;;;400.00;383.37;;;0.60;99.90;;;;;;4387964;32;20159;-60
2022/04/01 01:21:55;;;;;;;384.43;368.63;;;0.70;99.90;;;;;;4377166;32;20255;-58
2022/04/01 01:24:31;;;;;;;389.17;372.93;;;0.70;99.90;;;;;;4377509;32;20172;-57
2022/04/01 01:26:58;;;;;;;392.50;376.03;;;0.70;99.90;;;;;;4378411;32;20166;-59
2022/04/01 01:29:28;;;;;;;392.73;376.43;;;0.60;99.90;;;;;;4386566;32;20156;-56
2022/04/01 01:32:01;;;;;;;396.90;380.20;;;0.60;99.90;;;;;;4392484;32;20212;-58
2022/04/01 01:34:29;;;;;;;389.03;372.87;;;0.60;99.90;;;;;;4384452;32;20160;-57
2022/04/01 01:36:59;;;;;;;382.17;366.13;;;0.70;99.90;;;;;;4384953;32;20161;-59
2022/04/01 01:39:30;;;;;;;378.53;362.93;;;0.70;99.90;;;;;;4387402;32;20687;-54
2022/04/01 01:42:00;;;;;;;382.23;366.33;;;0.60;99.90;;;;;;4378799;32;20199;-59
2022/04/01 01:44:29;;;;;;;393.97;377.37;;;0.60;99.90;;;;;;4392510;32;20144;-57
2022/04/01 01:46:58;;;;;;;392.57;376.33;;;0.70;99.90;;;;;;4379553;32;20199;-58
2022/04/01 01:49:30;;;;;;;405.87;388.93;;;0.70;99.90;;;;;;4390671;32;20638;-56
2022/04/01 01:54:52;;;;;;;385.43;369.60;;;0.70;99.90;;;;;;4383392;32;20175;-55
2022/04/01 01:57:22;;;;;;;383.43;367.57;;;0.60;99.90;;;;;;4377779;32;20149;-59
2022/04/01 01:59:50;;;;;;;383.93;368.13;;;0.60;99.90;;;;;;4382378;32;20144;-57
2022/04/01 02:02:23;;;;;;;382.47;366.77;;;0.60;99.90;;;;;;4380222;32;20500;-56
2022/04/01 02:04:53;;;;;;;377.70;362.10;;;0.60;99.90;;;;;;4377219;32;20153;-60
2022/04/01 02:07:22;;;;;;;390.77;374.70;;;0.60;99.90;;;;;;4376706;32;20160;-56
2022/04/01 02:09:51;;;;;;;390.97;374.53;;;0.60;99.90;;;;;;4384274;32;20156;-55
2022/04/01 02:12:19;;;;;;;371.03;355.77;;;0.60;99.90;;;;;;4378411;32;20156;-53
2022/04/01 02:14:50;;;;;;;376.00;360.47;;;0.60;99.90;;;;;;4380852;32;20227;-56
2022/04/01 02:17:25;;;;;;;386.13;370.23;;;0.60;99.90;;;;;;4376651;32;20482;-54
2022/04/01 02:19:52;;;;;;;379.13;363.60;;;0.60;99.90;;;;;;4379473;32;20155;-51
2022/04/01 02:22:20;;;;;;;391.33;375.30;;;0.60;99.90;;;;;;4377128;32;20152;-55
2022/04/01 02:24:50;;;;;;;383.93;367.90;;;0.60;99.90;;;;;;4376006;32;20177;-53
2022/04/01 02:27:19;;;;;;;370.70;355.43;;;0.60;99.90;;;;;;4386163;32;20202;-57
2022/04/01 02:29:50;;;;;;;374.33;358.97;;;0.60;99.90;;;;;;4380241;32;20151;-58
2022/04/01 02:32:21;;;;;;;383.30;367.47;;;0.70;99.90;;;;;;4386075;32;20489;-54
2022/04/01 02:34:50;;;;;;;374.63;359.10;;;0.70;99.90;;;;;;4378140;32;20149;-55
2022/04/01 02:37:17;;;;;;;373.03;357.67;;;0.70;99.90;;;;;;4376110;32;20149;-56
2022/04/01 02:39:49;;;;;;;385.23;369.20;;;0.60;99.90;;;;;;4388585;32;20152;-57
2022/04/01 02:42:16;;;;;;;391.53;375.40;;;0.70;99.90;;;;;;4386446;32;20162;-56
2022/04/01 02:44:49;;;;;;;382.87;367.10;;;0.60;99.90;;;;;;4391726;32;20243;-58
2022/04/01 02:47:16;;;;;;;385.40;369.50;;;0.60;99.90;;;;;;4391304;32;20166;-56
2022/04/01 02:49:43;;;;;;;396.67;380.20;;;0.70;99.90;;;;;;4387647;32;20237;-53
2022/04/01 02:52:10;;;;;;;413.93;396.67;;;0.70;99.90;;;;;;4388645;32;20186;-58
2022/04/01 02:54:37;;;;;;;405.30;388.40;;;0.60;99.90;;;;;;4382821;32;20174;-57
2022/04/01 02:57:05;;;;;;;389.80;373.80;;;0.70;99.90;;;;;;4328462;32;2089707;-55
2022/04/01 02:59:32;;;;;;;382.87;366.87;;;0.70;99.90;;;;;;4401076;32;20211;-57
2022/04/01 03:02:03;;;;;;;395.30;378.90;;;0.60;99.90;;;;;;4402609;32;20223;-59
2022/04/01 03:04:32;;;;;;;396.80;380.30;;;0.60;99.90;;;;;;4403005;32;20227;-59
2022/04/01 03:06:59;;;;;;;394.73;378.30;;;0.70;99.90;;;;;;4397284;32;20143;-55
2022/04/01 03:09:26;;;;;;;397.97;381.53;;;0.60;99.90;;;;;;4404106;32;20164;-54
2022/04/01 03:11:58;;;;;;;390.17;373.90;;;0.70;99.90;;;;;;4406384;32;20640;-59
2022/04/01 03:14:25;;;;;;;407.77;390.93;;;0.60;99.90;;;;;;4395193;32;20474;-54
2022/04/01 03:16:52;;;;;;;393.70;377.30;;;0.70;99.90;;;;;;4404703;32;20572;-54
2022/04/01 03:19:21;;;;;;;401.43;384.70;;;0.60;99.90;;;;;;4405566;32;20152;-56
2022/04/01 03:21:50;;;;;;;396.80;380.10;;;0.70;99.90;;;;;;4405539;32;20174;-53
2022/04/01 03:24:17;;;;;;;399.00;382.03;;;0.60;99.90;;;;;;4403377;32;20232;-50
2022/04/01 03:26:47;;;;;;;389.90;373.60;;;0.60;99.90;;;;;;4404046;32;20151;-56
2022/04/01 03:29:14;;;;;;;391.77;375.37;;;0.70;99.90;;;;;;4397280;32;20132;-55
2022/04/01 03:31:46;;;;;;;389.10;372.83;;;0.60;99.90;;;;;;4394491;32;20163;-58
2022/04/01 03:34:15;;;;;;;393.50;377.00;;;0.70;99.90;;;;;;4402643;32;20184;-56
2022/04/01 03:36:54;;;;;;;397.40;380.97;;;0.60;99.90;;;;;;4405803;32;20461;-53
2022/04/01 03:39:28;;;;;;;389.47;373.17;;;0.60;99.90;;;;;;4404846;32;20559;-56
2022/04/01 03:41:58;;;;;;;408.53;391.43;;;0.60;99.90;;;;;;4401873;32;20602;-57
2022/04/01 03:44:25;;;;;;;384.93;368.73;;;0.60;99.90;;;;;;4405236;32;20653;-55
2022/04/01 03:47:05;;;;;;;391.80;375.53;;;0.60;99.90;;;;;;4402406;32;20790;-54
2022/04/01 03:49:34;;;;;;;390.60;374.37;;;0.60;99.90;;;;;;4391057;32;20182;-53
2022/04/01 03:52:07;;;;;;;399.97;383.30;;;0.60;99.90;;;;;;4393144;32;20565;-57
2022/04/01 03:54:34;;;;;;;392.00;375.70;;;0.60;99.90;;;;;;4401662;32;20162;-56
2022/04/01 03:57:03;;;;;;;396.53;379.93;;;0.60;99.90;;;;;;4404112;32;20156;-55
2022/04/01 03:59:40;;;;;;;393.50;377.00;;;0.60;99.90;;;;;;4403358;32;20211;-57
2022/04/01 04:02:11;;;;;;;392.03;375.73;;;0.70;99.90;;;;;;4404516;32;20495;-57
2022/04/01 04:04:40;;;;;;;389.33;373.10;;;0.70;99.90;;;;;;4401820;32;20219;-56
2022/04/01 04:07:11;;;;;;;381.73;365.87;;;0.70;99.90;;;;;;4407104;32;20136;-55
2022/04/01 04:09:42;;;;;;;386.80;370.70;;;0.70;99.90;;;;;;4403455;32;20238;-56
2022/04/01 04:12:13;;;;;;;387.50;371.23;;;0.70;99.90;;;;;;4390954;32;20160;-58
2022/04/01 04:14:47;;;;;;;398.47;381.93;;;0.70;99.90;;;;;;4399075;32;20163;-57
2022/04/01 04:17:24;;;;;;;398.40;381.43;;;0.70;99.90;;;;;;4405043;32;20201;-57
2022/04/01 04:19:59;;;;;;;391.63;375.33;;;0.70;99.90;;;;;;4400919;32;20571;-57
2022/04/01 04:22:35;;;;;;;389.77;373.40;;;0.70;99.90;;;;;;4404497;32;20222;-55
2022/04/01 04:25:10;;;;;;;404.27;387.43;;;0.60;99.90;;;;;;4396080;32;20144;-58
2022/04/01 04:27:44;;;;;;;390.00;373.53;;;0.70;99.90;;;;;;4390530;32;20155;-56
2022/04/01 04:30:11;;;;;;;401.67;385.00;;;0.70;99.90;;;;;;4390738;32;20166;-58
2022/04/01 04:32:46;;;;;;;399.77;382.90;;;0.70;99.90;;;;;;4390060;32;20158;-58
2022/04/01 04:35:18;;;;;;;385.00;368.93;;;0.70;99.90;;;;;;4390504;32;20232;-55
2022/04/01 04:37:48;;;;;;;408.40;391.33;;;0.60;99.90;;;;;;4390170;32;20140;-57
2022/04/01 04:40:19;;;;;;;395.97;379.53;;;0.70;99.90;;;;;;4399057;32;20471;-53
2022/04/01 04:42:52;;;;;;;382.47;366.10;;;0.70;99.90;;;;;;4395767;32;20141;-52
2022/04/01 04:45:25;;;;;;;396.67;380.20;;;0.70;99.90;;;;;;4401822;32;20524;-55
2022/04/01 04:47:53;;;;;;;398.87;382.20;;;0.70;99.90;;;;;;4395297;32;20143;-57
2022/04/01 04:50:21;;;;;;;394.50;377.93;;;0.70;99.90;;;;;;4403481;32;20178;-56
2022/04/01 04:52:51;;;;;;;393.80;377.23;;;0.70;99.90;;;;;;4405949;32;20141;-52
2022/04/01 04:55:19;;;;;;;398.47;382.00;;;0.70;99.90;;;;;;4402355;32;20182;-58
2022/04/01 04:57:51;;;;;;;387.00;371.00;;;0.70;99.90;;;;;;4394406;32;20160;-53
2022/04/01 05:00:22;;;;;;;393.43;377.03;;;0.70;99.90;;;;;;4392453;32;20167;-56
2022/04/01 05:03:22;;;;;;;402.77;385.83;;;0.70;99.90;;;;;;4399980;32;20228;-56
2022/04/01 05:05:53;;;;;;;393.27;376.90;;;0.70;99.90;;;;;;4402330;32;20148;-55
2022/04/01 05:08:36;;;;;;;396.77;380.37;;;0.70;99.90;;;;;;4398226;32;20220;-51
2022/04/01 05:11:09;;;;;;;392.00;375.83;;;0.70;99.90;;;;;;4402084;32;20713;-54
2022/04/01 05:13:45;;;;;;;394.40;377.77;;;0.70;99.90;;;;;;4401456;32;20166;-58
2022/04/01 05:16:26;;;;;;;386.90;370.37;;;0.70;99.90;;;;;;4401151;32;20234;-57
2022/04/01 05:19:02;;;;;;;387.80;371.83;;;0.70;99.90;;;;;;4403555;32;20190;-54
2022/04/01 05:21:36;;;;;;;394.17;377.83;;;0.70;99.90;;;;;;4403280;32;20189;-54
2022/04/01 05:24:08;;;;;;;395.47;379.20;;;0.70;99.90;;;;;;4404718;32;20234;-55
2022/04/01 05:26:40;;;;;;;398.10;381.50;;;0.70;99.90;;;;;;4405971;32;20168;-55
2022/04/01 05:29:13;;;;;;;391.77;375.60;;;0.70;99.90;;;;;;4404608;32;20299;-54
2022/04/01 05:31:48;;;;;;;394.67;378.30;;;0.70;99.90;;;;;;4405913;32;20192;-56
2022/04/01 05:34:21;;;;;;;392.20;376.07;;;0.70;99.90;;;;;;4403766;32;20163;-54
2022/04/01 05:36:53;;;;;;;386.80;370.63;;;0.70;99.90;;;;;;4406110;32;20219;-55
2022/04/01 05:39:22;;;;;;;392.97;376.53;;;0.70;99.90;;;;;;4404801;32;20147;-52
2022/04/01 05:41:53;;;;;;;383.27;367.30;;;0.80;99.90;;;;;;4406136;32;20143;-56
2022/04/01 05:44:21;;;;;;;389.93;373.77;;;0.70;99.90;;;;;;4405287;32;20148;-57
2022/04/01 05:46:49;;;;;;;398.20;381.70;;;0.70;99.90;;;;;;4406130;32;20156;-54
2022/04/01 05:49:17;;;;;;;384.53;368.67;;;0.70;99.90;;;;;;4405569;32;20175;-57
2022/04/01 05:51:47;;;;;;;384.73;368.67;;;0.70;99.90;;;;;;4406124;32;20206;-56
2022/04/01 05:54:19;;;;;;;386.23;370.33;;;0.70;99.90;;;;;;4405556;32;20167;-54
2022/04/01 05:56:48;;;;;;;390.50;374.43;;;0.70;99.90;;;;;;4404646;32;20170;-56
2022/04/01 05:59:21;;;;;;;408.53;391.53;;;0.70;99.90;;;;;;4405997;32;20216;-59
2022/04/01 06:02:00;;;;;;;371.33;356.07;;;0.80;99.90;;;;;;4404861;32;20214;-55
2022/04/01 06:05:04;;;;;;;376.40;360.70;;;0.70;99.90;;;;;;4404621;32;20171;-54
2022/04/01 06:07:40;;;;;;;378.73;363.20;;;0.70;99.90;;;;;;4404752;32;20230;-58
2022/04/01 06:10:19;;;;;;;381.43;365.83;;;0.70;99.90;;;;;;4405660;32;20571;-52
2022/04/01 06:13:09;;;;;;;390.37;374.23;;;0.70;99.90;;;;;;4403093;32;20186;-54
2022/04/01 06:15:46;;;;;;;388.07;372.03;;;0.70;99.90;;;;;;4400348;32;20148;-58
2022/04/01 06:18:24;;;;;;;390.03;373.70;;;0.70;99.90;;;;;;4402109;32;20163;-59
2022/04/01 06:20:54;;;;;;;386.90;370.80;;;0.70;99.90;;;;;;4405009;32;20163;-56
2022/04/01 06:23:29;;;;;;;381.83;366.07;;;0.70;99.90;;;;;;4395484;32;20163;-55
2022/04/01 06:26:00;;;;;;;389.00;372.80;;;0.70;99.90;;;;;;4395200;32;20155;-56
2022/04/01 06:28:31;;;;;;;383.83;367.80;;;0.70;99.90;;;;;;4393300;32;20144;-56
2022/04/01 06:31:17;;;;;;;391.53;375.27;;;0.70;99.90;;;;;;4391346;32;20219;-56
2022/04/01 06:33:55;;;;;;;383.30;367.57;;;0.80;99.90;;;;;;4392609;32;20548;-54
2022/04/01 06:36:30;;;;;;;387.87;371.80;;;0.70;99.90;;;;;;4395782;32;20534;-56
2022/04/01 06:39:07;;;;;;;380.37;364.20;;;0.80;99.90;;;;;;4405715;32;20163;-54
2022/04/01 06:41:42;;;;;;;393.40;377.00;;;0.70;99.90;;;;;;4400721;32;20175;-54
2022/04/01 06:44:11;;;;;;;398.40;381.90;;;0.70;99.90;;;;;;4406022;32;20139;-53
2022/04/01 06:46:40;;;;;;;401.77;385.17;;;0.80;99.90;;;;;;4405452;32;20148;-56
2022/04/01 06:49:09;;;;;;;377.30;361.77;;;0.70;99.90;;;;;;4406113;32;20147;-58
2022/04/01 06:51:37;;;;;;;392.23;375.97;;;0.70;99.90;;;;;;4402759;32;20152;-58
2022/04/01 06:54:04;;;;;;;394.27;377.77;;;0.80;99.90;;;;;;4403062;32;20191;-56
2022/04/01 06:56:31;;;;;;;401.67;385.03;;;0.80;99.90;;;;;;4404057;32;20235;-58
2022/04/01 06:58:58;;;;;;;389.87;373.70;;;0.80;99.90;;;;;;4404934;32;20163;-55
2022/04/01 07:01:26;;;;;;;399.03;382.23;;;0.80;99.90;;;;;;4405106;32;20182;-58
2022/04/01 07:03:53;;;;;;;398.50;381.80;;;0.80;99.90;;;;;;4407017;32;20190;-56
2022/04/01 07:06:22;;;;;;;394.23;377.90;;;0.80;99.90;;;;;;4406929;32;20148;-56
2022/04/01 07:08:57;;;;;;;397.93;381.40;;;0.90;99.90;;;;;;4403292;32;20152;-55
2022/04/01 07:11:23;;;;;;;386.00;370.07;;;0.90;99.90;;;;;;4404832;32;20151;-56
2022/04/01 07:13:50;;;;;;;389.20;373.20;;;0.90;99.90;;;;;;4402191;32;20285;-56
2022/04/01 07:16:17;;;;;;;396.60;380.27;;;0.90;99.90;;;;;;4404137;32;20151;-55
2022/04/01 07:18:45;;;;;;;385.60;369.77;;;0.90;99.90;;;;;;4405062;32;20463;-57
2022/04/01 07:21:15;;;;;;;406.03;389.13;;;0.90;99.90;;;;;;4405439;32;20171;-56
2022/04/01 07:23:45;;;;;;;394.67;378.37;;;0.90;99.90;;;;;;4404505;32;20171;-55
2022/04/01 07:26:13;;;;;;;380.67;364.77;;;0.90;99.90;;;;;;4405894;32;20476;-53
2022/04/01 07:28:43;;;;;;;383.50;367.77;;;1.00;99.90;;;;;;4405202;32;20156;-56
2022/04/01 07:33:53;;;;;;;378.33;362.47;;;1.00;99.90;;;;;;4360161;32;20206;-54
2022/04/01 07:36:20;;;;;;;400.80;383.97;;;1.10;99.90;;;;;;4359697;32;20238;-55
2022/04/01 07:38:47;;;;;;;385.37;369.33;;;1.10;99.90;;;;;;4356437;32;20165;-57
2022/04/01 07:41:14;;;;;;;395.60;379.33;;;1.10;99.90;;;;;;4358432;32;20161;-57
2022/04/01 07:43:44;;;;;;;388.03;372.20;;;1.10;99.90;;;;;;4360024;32;20630;-59
2022/04/01 07:46:14;;;;;;;388.83;372.97;;;1.10;99.90;;;;;;4358411;32;20173;-58
2022/04/01 07:48:41;;;;;;;379.43;363.93;;;1.20;99.90;;;;;;4357487;32;20157;-58
2022/04/01 07:51:09;;;;;;;397.07;380.73;;;1.20;99.90;;;;;;4357786;32;20157;-57
2022/04/01 07:53:37;;;;;;;382.10;366.20;;;1.20;99.90;;;;;;4358302;32;20196;-57
2022/04/01 07:56:07;;;;;;;381.10;365.33;;;1.30;99.90;;;;;;4358841;32;20188;-57
2022/04/01 07:58:39;;;;;;;385.50;369.37;;;1.30;99.90;;;;;;4357668;32;20149;-57
2022/04/01 08:01:06;;;;;;;370.87;355.70;;;1.30;99.90;;;;;;4358525;32;20159;-58
2022/04/01 08:03:41;;;;;;;386.83;371.10;;;1.30;99.90;;;;;;4359905;32;20565;-61
2022/04/01 08:06:13;;;;;;;376.43;361.23;;;1.40;99.90;;;;;;4357814;33;20554;-55
2022/04/01 08:08:40;;;;;;;397.10;380.73;;;1.40;99.90;;;;;;4357667;32;20292;-57
2022/04/01 08:11:09;;;;;;;374.53;359.30;;;1.40;99.90;;;;;;4379768;32;20480;-58
2022/04/01 08:13:36;;;;;;;377.20;361.73;;;1.50;99.90;;;;;;4405017;32;20136;-56
2022/04/01 08:16:03;;;;;;;366.30;351.50;;;1.50;99.90;;;;;;4405584;32;20163;-58
2022/04/01 08:18:30;;;;;;;383.07;367.53;;;1.60;99.90;;;;;;4404836;32;20256;-59
2022/04/01 08:20:57;;;;;;;369.50;354.63;;;1.50;99.90;;;;;;4406361;32;20213;-59
2022/04/01 08:23:26;;;;;;;364.60;349.73;;;1.50;99.90;;;;;;4406518;32;20626;-59
2022/04/01 08:25:53;;;;;;;368.57;353.53;;;1.50;99.90;;;;;;4406957;32;20162;-57
2022/04/01 08:28:20;;;;;;;359.90;345.23;;;1.60;99.90;;;;;;4405243;32;20182;-57
2022/04/01 08:30:48;;;;;;;364.80;350.03;;;1.50;99.90;;;;;;4405164;32;20156;-57
2022/04/01 08:33:17;;;;;;;363.90;349.13;;;1.50;99.90;;;;;;4406271;32;20206;-61
2022/04/01 08:35:44;;;;;;;362.40;347.80;;;1.60;99.90;;;;;;4404963;32;20152;-60
2022/04/01 08:38:12;;;;;;;346.00;332.10;;;1.70;99.90;;;;;;4404749;32;20450;-59
2022/04/01 08:40:40;;;;;;;360.77;346.07;;;1.70;99.90;;;;;;4404035;32;20144;-58
2022/04/01 08:43:07;;;;;;;358.03;343.63;;;1.80;99.90;;;;;;4404889;32;20163;-58
2022/04/01 08:45:36;;;;;;;356.63;342.10;;;2.10;99.90;;;;;;4405085;32;20186;-59
2022/04/01 08:48:05;;;;;;;350.20;336.20;;;2.50;99.90;;;;;;4405284;32;20178;-60
2022/04/01 08:50:34;;;;;;;326.30;313.40;;;2.60;99.90;;;;;;4407316;32;20160;-60
2022/04/01 08:53:04;;;;;;;334.47;321.00;;;2.70;99.90;;;;;;4408627;32;20545;-60
2022/04/01 08:55:31;;;;;;;315.00;302.57;;;3.20;99.90;;;;;;4407927;32;20159;-59
2022/04/01 08:57:59;;;;;;;308.43;296.33;;;3.30;99.90;;;;;;4406946;32;20159;-60
2022/04/01 09:00:42;;;;;;;306.23;294.03;;;3.10;99.90;;;;;;4406425;32;20148;-60
2022/04/01 09:03:16;;;;;;;299.50;287.73;;;3.30;99.90;;;;;;4408769;32;20478;-59
2022/04/01 09:05:48;;;;;;;298.43;286.70;;;3.20;99.90;;;;;;4407970;32;20147;-59
2022/04/01 09:08:16;;;;;;;323.60;310.87;;;3.20;99.90;;;;;;4408258;32;20203;-59
2022/04/01 09:10:55;;;;;;;298.27;286.47;;;3.10;99.90;;;;;;4407012;32;20182;-59
2022/04/01 09:13:25;;;;;;;309.27;297.07;;;3.20;99.90;;;;;;4409380;32;20567;-58
2022/04/01 09:15:52;;;;;;;304.03;292.03;;;3.40;99.90;;;;;;4407683;32;20174;-58
2022/04/01 09:18:39;;;;;;;290.70;279.23;;;3.40;99.90;;;;;;4407516;32;20141;-58
2022/04/01 09:21:08;;;;;;;300.63;288.87;;;3.60;99.90;;;;;;4407533;32;20191;-58
2022/04/01 09:23:37;;;;;;;289.13;277.60;;;3.70;99.90;;;;;;4407365;32;20148;-57
2022/04/01 09:26:07;;;;;;;276.77;265.83;;;3.90;99.90;;;;;;4409277;32;20433;-59
2022/04/01 09:28:40;;;;;;;295.03;283.20;;;4.00;99.90;;;;;;4407838;32;20136;-58
2022/04/01 09:31:12;;;;;;;290.63;279.13;;;4.00;99.90;;;;;;4408370;32;20161;-59
2022/04/01 09:33:57;;;;;;;282.27;270.87;;;4.20;99.90;;;;;;4406894;32;20650;-57
2022/04/01 09:36:53;;;;;;;273.03;262.20;;;4.30;99.90;;;;;;4402598;32;20161;-59
2022/04/01 09:39:23;;;;;;;276.57;265.70;;;4.60;99.90;;;;;;4406830;32;20156;-57
2022/04/01 09:42:18;;;;;;;265.37;254.87;;;4.30;99.90;;;;;;4407114;32;20566;-59
2022/04/01 09:44:59;;;;;;;257.77;247.80;;;4.00;99.90;;;;;;4406617;32;20156;-59
2022/04/01 09:47:26;;;;;;;273.13;262.33;;;3.70;99.90;;;;;;4406836;32;20225;-59
2022/04/01 09:49:58;;;;;;;272.10;261.37;;;3.70;99.90;;;;;;4402165;32;20452;-58
2022/04/01 09:52:27;;;;;;;281.67;270.57;;;3.80;99.90;;;;;;4401600;32;20821;-55
2022/04/01 09:54:55;;;;;;;288.23;276.73;;;4.00;99.90;;;;;;4410549;32;20579;-56
2022/04/01 09:57:23;;;;;;;274.67;263.90;;;4.10;99.90;;;;;;4410481;32;20186;-57
2022/04/01 09:59:52;;;;;;;280.17;268.77;;;3.80;99.90;;;;;;4410852;32;20219;-56
2022/04/01 10:02:21;;;;;;;267.07;256.40;;;3.80;99.90;;;;;;4408542;32;20140;-57
2022/04/01 10:04:50;;;;;;;275.70;264.90;;;3.90;99.90;;;;;;4405594;32;20147;-57
2022/04/01 10:07:22;;;;;;;262.33;252.10;;;4.30;99.90;;;;;;4405226;32;20166;-57
2022/04/01 10:09:51;;;;;;;260.73;250.50;;;4.50;99.90;;;;;;4405393;32;20175;-57
2022/04/01 10:12:24;;;;;;;269.67;259.13;;;4.70;99.90;;;;;;4406445;32;20149;-58
2022/04/01 10:14:54;;;;;;;258.97;248.90;;;4.70;99.90;;;;;;4405101;32;20166;-59
2022/04/01 10:17:23;;;;;;;261.60;251.33;;;4.40;99.90;;;;;;4405365;32;20652;-55
2022/04/01 10:19:51;;;;;;;260.30;250.13;;;4.50;99.90;;;;;;4405526;32;20171;-57
2022/04/01 10:22:23;;;;;;;258.77;248.57;;;4.60;99.90;;;;;;4405003;32;20249;-57
2022/04/01 10:24:57;;;;;;;259.73;249.57;;;4.60;99.90;;;;;;4405110;32;20152;-56
2022/04/01 10:27:35;;;;;;;267.47;257.10;;;4.70;99.90;;;;;;4403557;32;20144;-57
2022/04/01 10:30:02;;;;;;;260.73;250.57;;;4.70;99.90;;;;;;4405501;32;20596;-56
2022/04/01 10:32:32;;;;;;;269.17;258.40;;;4.70;99.90;;;;;;4404736;32;20212;-59
2022/04/01 10:35:00;;;;;;;262.07;251.80;;;4.40;99.90;;;;;;4406447;32;20211;-59
2022/04/01 10:37:30;;;;;;;260.87;250.73;;;4.10;99.90;;;;;;4404691;32;20215;-59
2022/04/01 10:39:58;;;;;;;267.20;256.40;;;4.10;99.90;;;;;;4406924;32;20199;-58
2022/04/01 10:42:27;;;;;;;264.83;254.43;;;4.40;99.90;;;;;;4401046;32;20586;-60
2022/04/01 10:44:56;;;;;;;262.77;252.50;;;4.90;99.90;;;;;;4404760;32;20144;-58
2022/04/01 10:47:24;;;;;;;265.90;255.47;;;4.90;99.90;;;;;;4405247;32;20519;-57
2022/04/01 10:53:32;;;;;;;229.50;220.13;;;5.00;99.90;;;;;;4403904;32;20219;-57
2022/04/01 10:56:29;;;;;;;242.03;232.50;;;4.80;99.90;;;;;;4405015;32;20167;-58
2022/04/01 10:59:05;;;;;;;244.53;234.83;;;4.80;99.90;;;;;;4400537;32;20188;-57
2022/04/01 11:01:32;;;;;;;246.93;236.97;;;5.30;99.90;;;;;;4403422;32;20232;-58
2022/04/01 11:04:23;;;;;;;255.63;245.57;;;5.40;99.90;;;;;;4404571;32;20219;-58
2022/04/01 11:06:55;;;;;;;236.27;226.97;;;5.50;99.90;;;;;;4398415;32;20168;-57
2022/04/01 11:09:38;;;;;;;239.47;230.07;;;5.50;99.90;;;;;;4407059;32;20175;-57
2022/04/01 11:12:29;;;;;;;244.63;235.00;;;5.50;99.90;;;;;;4404610;32;20176;-55
2022/04/01 11:15:12;;;;;;;227.00;218.07;;;5.40;99.90;;;;;;4404908;32;20183;-60
2022/04/01 11:18:01;;;;;;;230.63;221.57;;;5.00;99.90;;;;;;4406328;32;20160;-57
2022/04/01 11:20:29;;;;;;;236.97;227.53;;;4.50;99.90;;;;;;4403234;32;20171;-58
2022/04/01 11:23:14;;;;;;;251.03;241.13;;;4.30;99.90;;;;;;4404852;32;20170;-59
2022/04/01 11:25:51;;;;;;;245.20;235.50;;;4.60;99.90;;;;;;4404436;32;20231;-57
2022/04/01 11:28:19;;;;;;;268.23;257.70;;;4.80;99.90;;;;;;4402776;32;20141;-59
2022/04/01 11:31:12;;;;;;;253.80;243.87;;;5.10;99.90;;;;;;4402855;32;20229;-57
2022/04/01 11:33:40;;;;;;;229.87;220.73;;;5.40;99.90;;;;;;4399453;32;20582;-58
2022/04/01 11:36:07;;;;;;;246.80;237.03;;;5.00;99.90;;;;;;4403778;32;20149;-59
2022/04/01 11:38:36;;;;;;;237.43;228.03;;;4.80;99.90;;;;;;4403497;32;20149;-56
2022/04/01 11:41:04;;;;;;;240.03;230.37;;;4.60;99.90;;;;;;4403646;32;20143;-59
2022/04/01 11:43:33;;;;;;;249.60;239.63;;;4.70;99.90;;;;;;4404213;32;20153;-56
2022/04/01 11:46:04;;;;;;;256.10;246.07;;;4.90;99.90;;;;;;4404210;32;20178;-60
2022/04/01 11:48:32;;;;;;;263.37;252.80;;;5.20;99.90;;;;;;4406523;32;20455;-58
2022/04/01 11:51:03;;;;;;;239.90;230.37;;;5.70;99.90;;;;;;4401018;32;20233;-59
2022/04/01 11:53:32;;;;;;;243.77;234.13;;;5.60;99.90;;;;;;4405619;32;20216;-60
2022/04/01 11:56:01;;;;;;;234.87;225.67;;;5.20;99.90;;;;;;4404456;32;20227;-58
2022/04/01 11:58:34;;;;;;;240.20;230.50;;;4.80;99.90;;;;;;4404426;32;20518;-58
2022/04/01 12:01:01;;;;;;;238.97;229.50;;;4.70;99.90;;;;;;4402577;32;20146;-57
2022/04/01 12:03:27;;;;;;;229.23;220.17;;;4.60;99.90;;;;;;4401565;32;20154;-55
2022/04/01 12:08:41;;;;;;;251.23;241.40;;;4.80;99.90;;;;;;4403511;32;20577;-56
2022/04/01 12:08:46;;;;;;;233.73;224.53;;;5.10;99.90;;;;;;4401431;32;20219;-58
2022/04/01 12:11:14;;;;;;;230.00;220.77;;;5.30;99.90;;;;;;4403794;32;20164;-59
2022/04/01 12:13:50;;;;;;;236.33;227.07;;;5.30;99.90;;;;;;4404241;32;20178;-59
2022/04/01 12:16:18;;;;;;;251.77;241.83;;;5.20;99.90;;;;;;4406295;32;20624;-60
2022/04/01 12:18:47;;;;;;;241.23;231.70;;;5.10;99.90;;;;;;4403009;32;20170;-59
2022/04/01 12:21:18;;;;;;;227.83;218.87;;;5.30;99.90;;;;;;4404614;32;20144;-57
2022/04/01 12:23:48;;;;;;;240.90;231.60;;;5.10;99.90;;;;;;4402012;32;20176;-57
2022/04/01 12:26:17;;;;;;;240.57;231.03;;;4.80;99.90;;;;;;4405133;32;20486;-59
2022/04/01 12:28:46;;;;;;;232.03;222.80;;;4.70;99.90;;;;;;4401113;32;20193;-57
2022/04/01 12:31:21;;;;;;;242.27;232.57;;;4.40;99.90;;;;;;4408073;32;20185;-56
2022/04/01 12:33:49;;;;;;;232.77;223.43;;;4.20;99.90;;;;;;4403295;32;20166;-57
2022/04/01 12:36:28;;;;;;;251.70;241.70;;;4.00;99.90;;;;;;4404527;32;20254;-55
2022/04/01 12:39:02;;;;;;;259.77;249.53;;;3.90;99.90;;;;;;4406991;32;20186;-57
2022/04/01 12:41:48;;;;;;;246.17;236.30;;;4.00;99.90;;;;;;4407150;32;20576;-58
2022/04/01 12:44:15;;;;;;;241.73;232.17;;;4.20;99.90;;;;;;4407406;32;20581;-56
2022/04/01 12:46:48;;;;;;;260.73;250.47;;;4.40;99.90;;;;;;4407900;32;20148;-57
2022/04/01 12:49:16;;;;;;;262.43;252.20;;;4.80;99.90;;;;;;4408038;32;20194;-56